Terminal Aerodrome Forecast
Issued by NWS Shreveport, LA

Home | Current Version | Previous Version | Text Only | Print | Product List | Glossary On
Versions: 1 2 3 4 5 6 7 8 9 10 11 12 13 14
000
FTUS44 KSHV 301700
TAFTXK
TAF
KTXK 301721Z 3018/0118 11005KT P6SM SCT060 SCT100 SCT250
     FM010000 12004KT P6SM SCT060 SCT250
      TEMPO 0110/0114 5SM BR SCT015
     FM011400 16006KT P6SM SCT015
     FM011600 17007KT P6SM SCT030=

USA.gov is the U.S. government's official web portal to all federal, state and local government web resources and services.